This is the latest recevied weather packets stored in our database for station/object IZ1VWE-3. If no packets are shown the sender has not sent any weather packets the latest 10 day(s).
| Time | Temp. | Humidity | Pressure | Rain* | Wind** | Luminosity | Snow |
|---|---|---|---|---|---|---|---|
| 1777755021 | 15° C | 39% | 1019.3 hPa | - | - | - | - |
| 1777753821 | 14.44° C | 40% | 1019.4 hPa | - | - | - | - |
| 1777752621 | 15° C | 37% | 1019.4 hPa | - | - | - | - |
| 1777751420 | 15.56° C | 36% | 1019.1 hPa | - | - | - | - |
| 1777750220 | 15° C | 36% | 1018.9 hPa | - | - | - | - |
| 1777749020 | 15.56° C | 36% | 1019 hPa | - | - | - | - |
| 1777747819 | 16.11° C | 35% | 1016.6 hPa | - | - | - | - |
| 1777746619 | 16.67° C | 34% | 1018.7 hPa | - | - | - | - |
| 1777745419 | 20° C | 25% | 1018.8 hPa | - | - | - | - |
| 1777744219 | 21.67° C | 23% | 1018.9 hPa | - | - | - | - |
| 1777743018 | 22.78° C | 21% | 1018.9 hPa | - | - | - | - |
| 1777741818 | 25.56° C | 18% | 1018.9 hPa | - | - | - | - |
| 1777740618 | 25.56° C | 20% | 1018.9 hPa | - | - | - | - |
| 1777739417 | 25.56° C | 21% | 1019 hPa | - | - | - | - |
| 1777738217 | 25° C | 23% | 1019.3 hPa | - | - | - | - |
| 1777737017 | 22.78° C | 22% | 1019.6 hPa | - | - | - | - |
| 1777735816 | 22.78° C | 21% | 1019.7 hPa | - | - | - | - |
| 1777734616 | 22.78° C | 21% | 1019.9 hPa | - | - | - | - |
| 1777733416 | 23.33° C | 19% | 1020.1 hPa | - | - | - | - |
| 1777732215 | 23.33° C | 21% | 1020.3 hPa | - | - | - | - |
| 1777731015 | 22.78° C | 18% | 1020.5 hPa | - | - | - | - |
| 1777729815 | 23.89° C | 21% | 1020.7 hPa | - | - | - | - |
| 1777728615 | 23.33° C | 24% | 1021 hPa | - | - | - | - |
| 1777727414 | 23.89° C | 22% | 1021.2 hPa | - | - | - | - |
| 1777726214 | 23.33° C | 20% | 1020.9 hPa | - | - | - | - |
* Rain since midnight (hover to see other rain measurements)
** Current wind speed in m/s (hover to see current wind gust speed)